Time;durP1;ratioP1;P1;durP2;ratioP2;P2;SDS_P1;SDS_P2;PMS_P1;PMS_P2;Temp;Humidity;BMP_temperature;BMP_pressure;BME280_temperature;BME280_humidity;BME280_pressure;Samples;Min_cycle;Max_cycle;Signal;HPM_P1;HPM_P2
2024/03/10 00:04:26;;;;;;;23.33;14.27;;;9.50;1.00;;;;;;20670899;28;20441;-41
2024/03/10 00:14:26;;;;;;;24.83;14.50;;;9.50;1.00;;;;;;20627639;28;20410;-41
2024/03/10 00:24:27;;;;;;;22.08;13.35;;;9.30;1.00;;;;;;20665605;28;20042;-41
2024/03/10 00:34:27;;;;;;;26.58;15.18;;;9.30;1.00;;;;;;20671231;28;20041;-41
2024/03/10 00:44:30;;;;;;;26.65;15.27;;;9.30;1.00;;;;;;20679043;28;20096;-41
2024/03/10 00:54:32;;;;;;;24.90;15.40;;;9.20;1.00;;;;;;20684797;28;20679;-41
2024/03/10 01:04:33;;;;;;;23.52;15.20;;;9.10;1.00;;;;;;20679988;28;20117;-41
2024/03/10 01:14:33;;;;;;;24.23;14.63;;;9.00;1.00;;;;;;20638450;28;20038;-41
2024/03/10 01:24:34;;;;;;;23.58;14.63;;;9.10;1.00;;;;;;20649046;28;20049;-41
2024/03/10 01:34:36;;;;;;;23.63;14.77;;;9.10;1.00;;;;;;20630566;28;21510;-41
2024/03/10 01:44:36;;;;;;;27.00;15.50;;;9.10;1.00;;;;;;20632928;28;21121;-41
2024/03/10 01:54:37;;;;;;;26.10;14.80;;;8.80;1.00;;;;;;20618144;28;20710;-40
2024/03/10 02:04:39;;;;;;;27.58;15.98;;;8.70;1.00;;;;;;20594244;28;20045;-40
2024/03/10 02:14:40;;;;;;;24.42;15.75;;;8.70;1.00;;;;;;20635990;28;20281;-41
2024/03/10 02:24:43;;;;;;;27.23;16.17;;;8.70;1.00;;;;;;20687196;28;20101;-41
2024/03/10 02:55:23;;;;;;;27.65;16.55;;;8.60;1.00;;;;;;20685919;28;20525;-40
2024/03/10 03:05:26;;;;;;;31.15;18.52;;;8.50;1.00;;;;;;20683838;28;20065;-41
2024/03/10 03:15:26;;;;;;;28.23;16.92;;;8.50;1.00;;;;;;20687937;28;20045;-41
2024/03/10 03:25:28;;;;;;;29.00;17.85;;;8.50;1.00;;;;;;20642742;28;20053;-41
2024/03/10 03:35:30;;;;;;;31.67;18.42;;;8.40;1.00;;;;;;21795584;22;20054;-82
2024/03/10 03:45:31;;;;;;;32.67;19.67;;;8.40;1.00;;;;;;20672216;28;20042;-83
2024/03/10 03:55:37;;;;;;;34.65;19.27;;;8.40;1.00;;;;;;20665112;28;20031;-84
2024/03/10 04:05:40;;;;;;;33.13;19.35;;;8.30;1.00;;;;;;20648471;28;20073;-84
2024/03/10 04:15:42;;;;;;;33.55;19.60;;;8.30;1.00;;;;;;20673580;28;20043;-83
2024/03/10 04:25:52;;;;;;;30.38;18.40;;;8.20;1.00;;;;;;20691883;28;20043;-84
2024/03/10 04:35:54;;;;;;;31.83;18.27;;;8.00;1.00;;;;;;20642414;28;20046;-84
2024/03/10 04:46:00;;;;;;;29.48;18.40;;;7.90;1.00;;;;;;20680696;28;20038;-82
2024/03/10 04:56:01;;;;;;;34.05;19.58;;;7.90;1.00;;;;;;20732407;28;20041;-83
2024/03/10 05:06:02;;;;;;;33.97;19.63;;;7.70;1.00;;;;;;20744197;28;20050;-81
2024/03/10 05:16:06;;;;;;;33.38;19.48;;;7.70;1.00;;;;;;20746044;28;20038;-82
2024/03/10 05:26:08;;;;;;;33.35;18.75;;;7.60;1.00;;;;;;20742017;28;20045;-82
2024/03/10 05:36:09;;;;;;;31.98;19.13;;;7.50;1.00;;;;;;20742182;28;20204;-82
2024/03/10 05:46:12;;;;;;;32.05;18.00;;;7.50;1.00;;;;;;20705690;28;20073;-82
2024/03/10 05:56:15;;;;;;;33.08;18.58;;;7.40;1.00;;;;;;20748959;28;20092;-84
2024/03/10 06:06:17;;;;;;;32.53;19.08;;;7.30;1.00;;;;;;20733542;28;20046;-82
2024/03/10 06:16:22;;;;;;;34.75;19.05;;;7.30;1.00;;;;;;20699439;28;20133;-83
2024/03/10 06:26:24;;;;;;;36.75;20.50;;;7.20;1.00;;;;;;20730105;28;20448;-82
2024/03/10 06:36:25;;;;;;;33.70;18.70;;;7.20;1.00;;;;;;20738219;28;20045;-83
2024/03/10 06:46:29;;;;;;;32.30;18.23;;;7.10;1.00;;;;;;20749289;28;20045;-83
2024/03/10 06:56:32;;;;;;;34.05;18.55;;;7.20;1.00;;;;;;20742673;28;20038;-83
2024/03/10 07:06:33;;;;;;;30.98;17.05;;;7.20;1.00;;;;;;20731701;28;20046;-83
2024/03/10 07:16:35;;;;;;;32.45;17.25;;;7.30;1.00;;;;;;20733232;28;20058;-82
2024/03/10 07:26:37;;;;;;;30.08;17.70;;;7.30;1.00;;;;;;20687586;28;20038;-83
2024/03/10 07:36:39;;;;;;;32.67;17.40;;;7.40;1.00;;;;;;20627925;28;20055;-83
2024/03/10 07:46:40;;;;;;;29.50;18.13;;;7.60;1.00;;;;;;20727319;28;20065;-83
2024/03/10 07:56:43;;;;;;;31.00;17.42;;;7.70;1.00;;;;;;20734768;28;20053;-83
2024/03/10 08:06:51;;;;;;;29.90;16.63;;;7.90;1.00;;;;;;20718900;28;20038;-83
2024/03/10 08:16:52;;;;;;;26.23;16.67;;;7.90;1.00;;;;;;20725584;23;20065;-47
2024/03/10 08:26:53;;;;;;;28.67;16.63;;;8.10;1.00;;;;;;20663476;28;20042;-47
2024/03/10 08:36:54;;;;;;;27.02;16.20;;;8.30;1.00;;;;;;20662689;28;20047;-47
2024/03/10 08:46:55;;;;;;;27.30;14.95;;;8.50;1.00;;;;;;20693403;28;20045;-48
2024/03/10 08:56:56;;;;;;;24.83;15.45;;;8.80;1.00;;;;;;20761272;28;20066;-48
2024/03/10 09:06:57;;;;;;;24.75;15.05;;;9.00;1.00;;;;;;20744574;28;20037;-47
2024/03/10 09:17:00;;;;;;;22.77;14.90;;;9.30;1.00;;;;;;20743858;28;20029;-47
2024/03/10 09:27:00;;;;;;;25.50;14.93;;;9.60;1.00;;;;;;20746086;28;20456;-48
2024/03/10 09:37:01;;;;;;;23.15;14.45;;;9.90;1.00;;;;;;20727151;28;20044;-47
2024/03/10 09:47:02;;;;;;;22.77;14.00;;;10.10;1.00;;;;;;20730329;28;20499;-47
2024/03/10 09:57:05;;;;;;;24.23;14.07;;;10.10;1.00;;;;;;20744864;28;20060;-47
2024/03/10 10:07:08;;;;;;;23.77;14.25;;;10.30;1.00;;;;;;20740091;28;20132;-48
2024/03/10 10:17:14;;;;;;;22.73;14.50;;;10.50;1.00;;;;;;20742352;28;20112;-48
2024/03/10 10:27:15;;;;;;;22.13;13.77;;;10.80;1.00;;;;;;20743159;28;20401;-48
2024/03/10 10:37:15;;;;;;;24.50;13.23;;;11.10;1.00;;;;;;20742517;28;20398;-48
2024/03/10 10:47:18;;;;;;;22.75;14.25;;;11.40;1.00;;;;;;20755920;28;20404;-47
2024/03/10 10:57:18;;;;;;;23.80;14.02;;;11.60;1.00;;;;;;20752299;28;20041;-47
2024/03/10 11:07:26;;;;;;;21.40;14.00;;;11.70;1.00;;;;;;20745607;28;20041;-48
2024/03/10 11:17:29;;;;;;;;;;;11.90;1.00;;;;;;20745718;28;20860;-48
2024/03/10 11:27:31;;;;;;;21.70;13.68;;;12.10;1.00;;;;;;20742459;28;20384;-48
2024/03/10 11:37:34;;;;;;;20.63;14.20;;;12.20;1.00;;;;;;20755378;28;20086;-48
2024/03/10 11:47:35;;;;;;;20.13;13.60;;;12.30;1.00;;;;;;20752500;28;20033;-48
2024/03/10 11:57:35;;;;;;;20.40;13.47;;;12.50;1.00;;;;;;20748178;28;20029;-47
2024/03/10 12:07:36;;;;;;;20.13;13.90;;;12.70;1.00;;;;;;20747409;28;21091;-48
2024/03/10 12:17:37;;;;;;;20.23;13.63;;;12.90;1.00;;;;;;20737345;28;20054;-48
2024/03/10 12:27:41;;;;;;;20.33;13.02;;;13.50;1.00;;;;;;20741099;28;20469;-48
2024/03/10 12:37:42;;;;;;;20.63;12.50;;;14.10;1.00;;;;;;20750005;28;20037;-48
2024/03/10 12:47:43;;;;;;;18.23;12.87;;;14.10;1.00;;;;;;20746931;28;20041;-48
2024/03/10 12:57:44;;;;;;;20.45;14.30;;;14.00;1.00;;;;;;20729208;28;20464;-49
2024/03/10 13:07:45;;;;;;;22.75;15.38;;;14.00;1.00;;;;;;20694201;28;20454;-48
2024/03/10 13:17:46;;;;;;;21.25;13.93;;;14.20;1.00;;;;;;20722407;28;20053;-48
2024/03/10 13:27:47;;;;;;;23.02;14.77;;;14.50;1.00;;;;;;20730773;28;20045;-48
2024/03/10 13:37:47;;;;;;;26.40;17.37;;;14.30;1.00;;;;;;20729228;28;22159;-48
2024/03/10 13:47:48;;;;;;;24.90;17.17;;;14.20;1.00;;;;;;20718117;28;20120;-48
2024/03/10 13:57:49;;;;;;;33.33;20.40;;;14.00;1.00;;;;;;20725050;28;20095;-48
2024/03/10 14:07:49;;;;;;;27.73;19.77;;;14.10;1.00;;;;;;20729154;28;20045;-48
2024/03/10 14:17:50;;;;;;;29.40;20.17;;;14.20;1.00;;;;;;20721583;28;20511;-48
2024/03/10 14:27:52;;;;;;;30.97;21.03;;;14.00;1.00;;;;;;20735909;28;20067;-48
2024/03/10 14:37:53;;;;;;;33.70;22.52;;;13.60;1.00;;;;;;20744382;28;20461;-48
2024/03/10 14:47:54;;;;;;;34.00;22.52;;;13.40;1.00;;;;;;20729668;28;20073;-48
2024/03/10 14:57:56;;;;;;;33.03;22.83;;;13.30;1.00;;;;;;20727879;28;20045;-48
2024/03/10 15:07:58;;;;;;;36.40;23.23;;;13.10;1.00;;;;;;20741370;28;20083;-48
2024/03/10 15:18:00;;;;;;;34.13;22.33;;;13.00;1.00;;;;;;20724833;28;20571;-48
2024/03/10 15:28:01;;;;;;;32.50;21.60;;;12.90;1.00;;;;;;20725323;28;20061;-49
2024/03/10 15:38:04;;;;;;;33.83;22.47;;;12.90;1.00;;;;;;20724369;28;20042;-48
2024/03/10 15:48:06;;;;;;;31.42;22.33;;;12.80;1.00;;;;;;20721370;28;20515;-48
2024/03/10 15:58:07;;;;;;;34.42;22.63;;;12.70;1.00;;;;;;20720161;28;20026;-49
2024/03/10 16:08:09;;;;;;;30.38;19.05;;;12.70;1.00;;;;;;20699328;28;20049;-50
2024/03/10 16:18:10;;;;;;;28.63;20.42;;;12.60;1.00;;;;;;20711278;28;20064;-49
2024/03/10 16:28:11;;;;;;;29.85;20.02;;;12.80;1.00;;;;;;20719368;28;20041;-48
2024/03/10 16:38:11;;;;;;;29.47;20.33;;;12.70;1.00;;;;;;20720090;28;20048;-48
2024/03/10 16:48:15;;;;;;;29.52;21.08;;;12.60;1.00;;;;;;20718310;28;20495;-49
2024/03/10 16:58:16;;;;;;;31.35;20.55;;;12.50;1.00;;;;;;20659563;28;20525;-48
2024/03/10 17:08:16;;;;;;;30.33;21.03;;;12.20;1.00;;;;;;20644019;28;20201;-48
2024/03/10 17:18:17;;;;;;;32.03;21.58;;;12.00;1.00;;;;;;20590806;28;20050;-48
2024/03/10 17:28:18;;;;;;;31.05;20.98;;;11.90;1.00;;;;;;20637311;28;20046;-48
2024/03/10 17:38:21;;;;;;;30.30;21.25;;;11.70;1.00;;;;;;20644682;28;20042;-56
2024/03/10 17:48:23;;;;;;;31.02;21.80;;;11.50;1.00;;;;;;20646628;28;20517;-48
2024/03/10 17:58:24;;;;;;;29.98;21.55;;;11.40;1.00;;;;;;20656606;28;20030;-48
2024/03/10 18:08:25;;;;;;;31.05;21.40;;;11.40;1.00;;;;;;20642212;28;20314;-48
2024/03/10 18:18:26;;;;;;;33.40;22.00;;;11.30;1.00;;;;;;20641831;28;20140;-48
2024/03/10 18:28:27;;;;;;;30.33;20.50;;;11.10;1.00;;;;;;20655615;28;20038;-48
2024/03/10 18:38:27;;;;;;;35.30;23.42;;;11.00;1.00;;;;;;20639201;28;20486;-48
2024/03/10 18:48:28;;;;;;;32.60;21.20;;;10.80;1.00;;;;;;20642803;28;20567;-48
2024/03/10 18:58:29;;;;;;;31.35;21.33;;;11.00;1.00;;;;;;20638976;28;20038;-48
2024/03/10 19:08:30;;;;;;;30.58;20.73;;;11.00;1.00;;;;;;20646245;28;20471;-47
2024/03/10 19:18:31;;;;;;;33.88;21.80;;;10.90;1.00;;;;;;20642797;28;20085;-47
2024/03/10 19:28:32;;;;;;;32.38;21.63;;;10.80;1.00;;;;;;20633937;28;20049;-47
2024/03/10 19:38:35;;;;;;;34.43;21.93;;;10.70;1.00;;;;;;20643066;28;20037;-48
2024/03/10 19:48:36;;;;;;;30.60;21.67;;;10.60;1.00;;;;;;20649110;28;20165;-48
2024/03/10 19:58:36;;;;;;;34.70;21.40;;;10.50;1.00;;;;;;20631835;28;20049;-47
2024/03/10 20:08:39;;;;;;;36.78;23.00;;;10.50;1.00;;;;;;20641105;28;20072;-48
2024/03/10 20:18:40;;;;;;;35.40;22.45;;;10.40;1.00;;;;;;20636099;28;20157;-48
2024/03/10 20:28:41;;;;;;;37.13;23.65;;;10.30;1.00;;;;;;20642950;28;20046;-48
2024/03/10 20:38:41;;;;;;;35.53;23.08;;;10.30;1.00;;;;;;20638317;28;20634;-48
2024/03/10 20:48:43;;;;;;;38.03;23.95;;;10.20;1.00;;;;;;20656366;28;20061;-48
2024/03/10 20:58:44;;;;;;;36.83;23.65;;;10.10;1.00;;;;;;20656713;28;20693;-47
2024/03/10 21:08:46;;;;;;;40.95;24.05;;;10.10;1.00;;;;;;20656265;28;20042;-49
2024/03/10 21:18:47;;;;;;;36.03;23.30;;;10.00;1.00;;;;;;20656173;28;20406;-48
2024/03/10 21:28:48;;;;;;;40.50;23.90;;;10.00;1.00;;;;;;20657298;28;20045;-48
2024/03/10 21:38:50;;;;;;;36.17;23.02;;;9.90;1.00;;;;;;20658768;28;20073;-49
2024/03/10 21:48:51;;;;;;;36.00;22.45;;;9.80;1.00;;;;;;20652693;28;20105;-48
2024/03/10 21:58:52;;;;;;;38.45;24.50;;;9.80;1.00;;;;;;20649493;28;20407;-51
2024/03/10 22:08:52;;;;;;;37.70;23.75;;;9.70;1.00;;;;;;20654276;28;20050;-49
2024/03/10 22:18:53;;;;;;;35.83;23.63;;;9.60;1.00;;;;;;20654610;28;20498;-48
2024/03/10 22:28:54;;;;;;;39.10;24.23;;;9.50;1.00;;;;;;20637971;28;20054;-48
2024/03/10 22:38:54;;;;;;;35.05;22.88;;;9.50;1.00;;;;;;20664701;28;20050;-47
2024/03/10 22:48:55;;;;;;;38.70;24.73;;;9.40;1.00;;;;;;20663425;28;20042;-48
2024/03/10 22:58:56;;;;;;;37.58;23.55;;;9.40;1.00;;;;;;20673917;28;20502;-48
2024/03/10 23:08:58;;;;;;;39.63;24.65;;;9.30;1.00;;;;;;20669868;28;20525;-48
2024/03/10 23:18:59;;;;;;;41.45;23.70;;;9.30;1.00;;;;;;20667900;28;20489;-48
2024/03/10 23:29:00;;;;;;;41.28;25.40;;;9.20;1.00;;;;;;20678658;28;20046;-48
2024/03/10 23:39:01;;;;;;;40.95;25.35;;;9.20;1.00;;;;;;20671029;28;20038;-48
2024/03/10 23:49:02;;;;;;;41.33;24.98;;;9.20;1.00;;;;;;20671035;28;20058;-47
2024/03/10 23:59:02;;;;;;;41.58;25.85;;;9.20;1.00;;;;;;20671400;28;20042;-48
